Terminal Aerodrome Forecast
Issued by NWS

Home | Current Version | Previous Version | Text Only | Print | Product List | Glossary On
Versions: 1 2 3 4 5 6 7 8 9 10 11 12 13 14 15 16 17 18
874
FTUS43 KGRR 190901 AAA
TAFAZO
TAF AMD
KAZO 190901Z 1909/2006 17007KT P6SM VCSH OVC030
     FM191300 18005KT 5SM BR OVC007
     FM191600 17006KT 1SM -RA BR OVC001
     FM191800 17007KT 1/2SM -RA FG OVC003
     FM192100 17008KT 1SM RA BR VCTS OVC004CB=

USA.gov is the U.S. government's official web portal to all federal, state and local government web resources and services.